sensor_id;sensor_type;location;lat;lon;timestamp;temperature;humidity
37678;DHT22;23517;50.390;8.616;2023-07-31T00:01:39;17.80;41.80
37678;DHT22;23517;50.390;8.616;2023-07-31T00:04:06;17.80;42.10
37678;DHT22;23517;50.390;8.616;2023-07-31T00:06:32;17.80;42.50
37678;DHT22;23517;50.390;8.616;2023-07-31T00:08:59;17.80;43.40
37678;DHT22;23517;50.390;8.616;2023-07-31T00:11:26;17.70;43.20
37678;DHT22;23517;50.390;8.616;2023-07-31T00:13:53;17.80;42.70
37678;DHT22;23517;50.390;8.616;2023-07-31T00:16:20;17.70;43.60
37678;DHT22;23517;50.390;8.616;2023-07-31T00:18:47;17.70;43.90
37678;DHT22;23517;50.390;8.616;2023-07-31T00:21:13;17.70;43.90
37678;DHT22;23517;50.390;8.616;2023-07-31T00:23:41;17.60;44.00
37678;DHT22;23517;50.390;8.616;2023-07-31T00:26:08;17.60;44.90
37678;DHT22;23517;50.390;8.616;2023-07-31T00:28:34;17.60;45.20
37678;DHT22;23517;50.390;8.616;2023-07-31T00:31:01;17.60;45.30
37678;DHT22;23517;50.390;8.616;2023-07-31T00:33:31;17.60;45.00
37678;DHT22;23517;50.390;8.616;2023-07-31T00:35:58;17.50;45.50
37678;DHT22;23517;50.390;8.616;2023-07-31T00:38:24;17.50;45.60
37678;DHT22;23517;50.390;8.616;2023-07-31T00:40:51;17.50;45.20
37678;DHT22;23517;50.390;8.616;2023-07-31T00:43:18;17.50;45.60
37678;DHT22;23517;50.390;8.616;2023-07-31T00:45:45;17.50;47.90
37678;DHT22;23517;50.390;8.616;2023-07-31T00:48:11;17.50;47.20
37678;DHT22;23517;50.390;8.616;2023-07-31T00:50:39;17.40;47.10
37678;DHT22;23517;50.390;8.616;2023-07-31T00:53:05;17.40;47.40
37678;DHT22;23517;50.390;8.616;2023-07-31T00:55:33;17.40;47.00
37678;DHT22;23517;50.390;8.616;2023-07-31T00:57:59;17.30;47.30
37678;DHT22;23517;50.390;8.616;2023-07-31T01:00:26;17.30;47.50
37678;DHT22;23517;50.390;8.616;2023-07-31T01:02:53;17.30;48.20
37678;DHT22;23517;50.390;8.616;2023-07-31T01:05:29;17.30;48.20
37678;DHT22;23517;50.390;8.616;2023-07-31T01:11:06;17.20;48.70
37678;DHT22;23517;50.390;8.616;2023-07-31T01:13:35;17.20;49.00
37678;DHT22;23517;50.390;8.616;2023-07-31T01:16:03;17.10;49.20
37678;DHT22;23517;50.390;8.616;2023-07-31T01:18:29;17.10;49.30
37678;DHT22;23517;50.390;8.616;2023-07-31T01:27:21;17.10;49.40
37678;DHT22;23517;50.390;8.616;2023-07-31T01:32:47;17.10;49.40
37678;DHT22;23517;50.390;8.616;2023-07-31T01:35:14;17.10;49.90
37678;DHT22;23517;50.390;8.616;2023-07-31T01:37:41;17.00;49.90
37678;DHT22;23517;50.390;8.616;2023-07-31T01:40:09;17.10;49.80
37678;DHT22;23517;50.390;8.616;2023-07-31T01:42:35;17.20;49.20
37678;DHT22;23517;50.390;8.616;2023-07-31T01:45:03;17.20;48.60
37678;DHT22;23517;50.390;8.616;2023-07-31T01:47:30;17.20;48.70
37678;DHT22;23517;50.390;8.616;2023-07-31T01:49:56;17.20;48.50
37678;DHT22;23517;50.390;8.616;2023-07-31T01:52:23;17.30;48.20
37678;DHT22;23517;50.390;8.616;2023-07-31T01:54:50;17.30;48.30
37678;DHT22;23517;50.390;8.616;2023-07-31T01:57:16;17.30;48.30
37678;DHT22;23517;50.390;8.616;2023-07-31T01:59:43;17.30;48.00
37678;DHT22;23517;50.390;8.616;2023-07-31T02:02:10;17.30;48.40
37678;DHT22;23517;50.390;8.616;2023-07-31T02:04:37;17.30;48.20
37678;DHT22;23517;50.390;8.616;2023-07-31T02:07:05;17.30;48.00
37678;DHT22;23517;50.390;8.616;2023-07-31T02:09:32;17.30;48.30
37678;DHT22;23517;50.390;8.616;2023-07-31T02:11:58;17.30;48.50
37678;DHT22;23517;50.390;8.616;2023-07-31T02:14:25;17.30;48.50
37678;DHT22;23517;50.390;8.616;2023-07-31T02:16:52;17.30;48.10
37678;DHT22;23517;50.390;8.616;2023-07-31T02:19:18;17.30;48.10
37678;DHT22;23517;50.390;8.616;2023-07-31T02:21:45;17.40;48.00
37678;DHT22;23517;50.390;8.616;2023-07-31T02:24:12;17.40;47.80
37678;DHT22;23517;50.390;8.616;2023-07-31T02:26:38;17.30;47.90
37678;DHT22;23517;50.390;8.616;2023-07-31T02:29:05;17.30;48.00
37678;DHT22;23517;50.390;8.616;2023-07-31T02:31:35;17.30;47.80
37678;DHT22;23517;50.390;8.616;2023-07-31T02:34:01;17.40;47.90
37678;DHT22;23517;50.390;8.616;2023-07-31T02:36:28;17.40;47.50
37678;DHT22;23517;50.390;8.616;2023-07-31T02:38:55;17.40;47.70
37678;DHT22;23517;50.390;8.616;2023-07-31T02:41:21;17.40;47.40
37678;DHT22;23517;50.390;8.616;2023-07-31T02:43:48;17.40;47.70
37678;DHT22;23517;50.390;8.616;2023-07-31T02:46:15;17.40;47.30
37678;DHT22;23517;50.390;8.616;2023-07-31T02:48:41;17.40;47.40
37678;DHT22;23517;50.390;8.616;2023-07-31T02:51:08;17.40;47.40
37678;DHT22;23517;50.390;8.616;2023-07-31T02:53:35;17.50;47.70
37678;DHT22;23517;50.390;8.616;2023-07-31T02:56:01;17.50;47.50
37678;DHT22;23517;50.390;8.616;2023-07-31T02:58:28;17.50;47.60
37678;DHT22;23517;50.390;8.616;2023-07-31T03:00:54;17.50;47.60
37678;DHT22;23517;50.390;8.616;2023-07-31T03:03:21;17.50;47.60
37678;DHT22;23517;50.390;8.616;2023-07-31T03:05:48;17.40;47.40
37678;DHT22;23517;50.390;8.616;2023-07-31T03:08:15;17.40;47.70
37678;DHT22;23517;50.390;8.616;2023-07-31T03:10:42;17.40;47.80
37678;DHT22;23517;50.390;8.616;2023-07-31T03:13:08;17.50;48.30
37678;DHT22;23517;50.390;8.616;2023-07-31T03:15:35;17.60;47.60
37678;DHT22;23517;50.390;8.616;2023-07-31T03:18:03;17.50;47.60
37678;DHT22;23517;50.390;8.616;2023-07-31T03:20:29;17.50;48.00
37678;DHT22;23517;50.390;8.616;2023-07-31T03:22:56;17.40;48.10
37678;DHT22;23517;50.390;8.616;2023-07-31T03:25:23;17.50;48.40
37678;DHT22;23517;50.390;8.616;2023-07-31T03:27:50;17.50;48.30
37678;DHT22;23517;50.390;8.616;2023-07-31T03:30:16;17.40;48.20
37678;DHT22;23517;50.390;8.616;2023-07-31T03:32:43;17.40;48.40
37678;DHT22;23517;50.390;8.616;2023-07-31T03:35:10;17.40;48.80
37678;DHT22;23517;50.390;8.616;2023-07-31T03:37:37;17.40;48.70
37678;DHT22;23517;50.390;8.616;2023-07-31T03:40:04;17.40;48.90
37678;DHT22;23517;50.390;8.616;2023-07-31T03:42:31;17.40;48.90
37678;DHT22;23517;50.390;8.616;2023-07-31T03:44:58;17.40;49.10
37678;DHT22;23517;50.390;8.616;2023-07-31T03:47:24;17.40;49.20
37678;DHT22;23517;50.390;8.616;2023-07-31T03:49:51;17.30;49.50
37678;DHT22;23517;50.390;8.616;2023-07-31T03:52:18;17.30;49.70
37678;DHT22;23517;50.390;8.616;2023-07-31T03:54:44;17.40;49.60
37678;DHT22;23517;50.390;8.616;2023-07-31T03:57:11;17.30;49.80
37678;DHT22;23517;50.390;8.616;2023-07-31T03:59:38;17.40;49.30
37678;DHT22;23517;50.390;8.616;2023-07-31T04:02:05;17.30;49.50
37678;DHT22;23517;50.390;8.616;2023-07-31T04:04:32;17.30;50.00
37678;DHT22;23517;50.390;8.616;2023-07-31T04:07:01;17.30;49.60
37678;DHT22;23517;50.390;8.616;2023-07-31T04:09:28;17.30;50.00
37678;DHT22;23517;50.390;8.616;2023-07-31T04:11:55;17.40;50.00
37678;DHT22;23517;50.390;8.616;2023-07-31T04:14:21;17.30;50.40
37678;DHT22;23517;50.390;8.616;2023-07-31T04:16:50;17.30;50.70
37678;DHT22;23517;50.390;8.616;2023-07-31T04:19:17;17.30;51.10
37678;DHT22;23517;50.390;8.616;2023-07-31T04:21:43;17.30;52.20
37678;DHT22;23517;50.390;8.616;2023-07-31T04:24:10;17.30;52.40
37678;DHT22;23517;50.390;8.616;2023-07-31T04:26:37;17.30;52.30
37678;DHT22;23517;50.390;8.616;2023-07-31T04:29:04;17.30;52.10
37678;DHT22;23517;50.390;8.616;2023-07-31T04:31:31;17.30;52.00
37678;DHT22;23517;50.390;8.616;2023-07-31T04:33:57;17.30;52.40
37678;DHT22;23517;50.390;8.616;2023-07-31T04:36:24;17.30;52.40
37678;DHT22;23517;50.390;8.616;2023-07-31T04:38:51;17.30;52.50
37678;DHT22;23517;50.390;8.616;2023-07-31T04:41:17;17.30;52.50
37678;DHT22;23517;50.390;8.616;2023-07-31T04:43:44;17.50;52.40
37678;DHT22;23517;50.390;8.616;2023-07-31T04:46:10;17.50;52.40
37678;DHT22;23517;50.390;8.616;2023-07-31T04:48:37;17.40;52.20
37678;DHT22;23517;50.390;8.616;2023-07-31T04:51:04;17.50;52.50
37678;DHT22;23517;50.390;8.616;2023-07-31T04:53:31;17.50;52.40
37678;DHT22;23517;50.390;8.616;2023-07-31T04:55:57;17.60;52.40
37678;DHT22;23517;50.390;8.616;2023-07-31T04:58:24;17.60;52.00
37678;DHT22;23517;50.390;8.616;2023-07-31T05:00:50;17.60;52.00
37678;DHT22;23517;50.390;8.616;2023-07-31T05:03:17;17.60;52.20
37678;DHT22;23517;50.390;8.616;2023-07-31T05:05:44;17.60;52.40
37678;DHT22;23517;50.390;8.616;2023-07-31T05:08:11;17.70;51.90
37678;DHT22;23517;50.390;8.616;2023-07-31T05:10:38;17.60;52.20
37678;DHT22;23517;50.390;8.616;2023-07-31T05:13:04;17.70;52.10
37678;DHT22;23517;50.390;8.616;2023-07-31T05:15:31;17.60;52.10
37678;DHT22;23517;50.390;8.616;2023-07-31T05:17:58;17.70;52.20
37678;DHT22;23517;50.390;8.616;2023-07-31T05:20:25;17.80;51.90
37678;DHT22;23517;50.390;8.616;2023-07-31T05:22:51;17.80;51.30
37678;DHT22;23517;50.390;8.616;2023-07-31T05:25:19;17.80;51.50
37678;DHT22;23517;50.390;8.616;2023-07-31T05:27:46;17.80;52.30
37678;DHT22;23517;50.390;8.616;2023-07-31T05:30:12;17.90;51.60
37678;DHT22;23517;50.390;8.616;2023-07-31T05:32:39;17.90;51.30
37678;DHT22;23517;50.390;8.616;2023-07-31T05:35:06;17.90;51.60
37678;DHT22;23517;50.390;8.616;2023-07-31T05:37:33;17.90;51.40
37678;DHT22;23517;50.390;8.616;2023-07-31T05:40:00;17.90;51.40
37678;DHT22;23517;50.390;8.616;2023-07-31T05:42:26;17.80;51.70
37678;DHT22;23517;50.390;8.616;2023-07-31T05:44:54;17.80;51.60
37678;DHT22;23517;50.390;8.616;2023-07-31T05:47:20;17.90;51.50
37678;DHT22;23517;50.390;8.616;2023-07-31T05:49:49;17.90;51.40
37678;DHT22;23517;50.390;8.616;2023-07-31T05:52:19;18.00;51.10
37678;DHT22;23517;50.390;8.616;2023-07-31T05:54:46;18.00;51.40
37678;DHT22;23517;50.390;8.616;2023-07-31T05:57:12;18.00;51.00
37678;DHT22;23517;50.390;8.616;2023-07-31T05:59:39;18.10;50.80
37678;DHT22;23517;50.390;8.616;2023-07-31T06:02:06;18.00;50.70
37678;DHT22;23517;50.390;8.616;2023-07-31T06:04:32;18.10;50.90
37678;DHT22;23517;50.390;8.616;2023-07-31T06:07:01;18.10;51.00
37678;DHT22;23517;50.390;8.616;2023-07-31T06:09:29;18.20;50.80
37678;DHT22;23517;50.390;8.616;2023-07-31T06:11:56;18.30;50.20
37678;DHT22;23517;50.390;8.616;2023-07-31T06:14:22;18.40;49.50
37678;DHT22;23517;50.390;8.616;2023-07-31T06:16:49;18.40;49.50
37678;DHT22;23517;50.390;8.616;2023-07-31T06:19:16;18.50;49.10
37678;DHT22;23517;50.390;8.616;2023-07-31T06:21:42;18.60;49.00
37678;DHT22;23517;50.390;8.616;2023-07-31T06:24:10;18.60;48.70
37678;DHT22;23517;50.390;8.616;2023-07-31T06:26:38;18.70;48.70
37678;DHT22;23517;50.390;8.616;2023-07-31T06:29:05;18.70;48.50
37678;DHT22;23517;50.390;8.616;2023-07-31T06:31:32;18.60;48.50
37678;DHT22;23517;50.390;8.616;2023-07-31T06:33:59;18.60;48.30
37678;DHT22;23517;50.390;8.616;2023-07-31T06:36:25;18.50;48.30
37678;DHT22;23517;50.390;8.616;2023-07-31T06:38:52;18.50;48.60
37678;DHT22;23517;50.390;8.616;2023-07-31T06:41:19;18.50;48.80
37678;DHT22;23517;50.390;8.616;2023-07-31T06:43:45;18.50;47.80
37678;DHT22;23517;50.390;8.616;2023-07-31T06:46:17;18.50;47.20
37678;DHT22;23517;50.390;8.616;2023-07-31T06:48:44;18.40;46.90
37678;DHT22;23517;50.390;8.616;2023-07-31T06:51:11;18.30;47.20
37678;DHT22;23517;50.390;8.616;2023-07-31T06:53:37;18.30;47.20
37678;DHT22;23517;50.390;8.616;2023-07-31T06:56:04;18.40;47.30
37678;DHT22;23517;50.390;8.616;2023-07-31T06:58:31;18.40;47.30
37678;DHT22;23517;50.390;8.616;2023-07-31T07:00:57;18.50;47.10
37678;DHT22;23517;50.390;8.616;2023-07-31T07:03:24;18.60;47.20
37678;DHT22;23517;50.390;8.616;2023-07-31T07:05:50;18.80;45.80
37678;DHT22;23517;50.390;8.616;2023-07-31T07:08:18;19.10;44.70
37678;DHT22;23517;50.390;8.616;2023-07-31T07:10:44;19.30;43.50
37678;DHT22;23517;50.390;8.616;2023-07-31T07:13:11;19.60;42.50
37678;DHT22;23517;50.390;8.616;2023-07-31T07:15:39;19.80;41.20
37678;DHT22;23517;50.390;8.616;2023-07-31T07:18:06;19.90;40.60
37678;DHT22;23517;50.390;8.616;2023-07-31T07:20:32;20.20;39.60
37678;DHT22;23517;50.390;8.616;2023-07-31T07:22:59;20.40;39.10
37678;DHT22;23517;50.390;8.616;2023-07-31T07:25:26;20.70;38.50
37678;DHT22;23517;50.390;8.616;2023-07-31T07:27:52;20.80;37.80
37678;DHT22;23517;50.390;8.616;2023-07-31T07:30:19;20.70;37.80
37678;DHT22;23517;50.390;8.616;2023-07-31T07:32:46;20.60;37.60
37678;DHT22;23517;50.390;8.616;2023-07-31T07:35:13;20.30;38.40
37678;DHT22;23517;50.390;8.616;2023-07-31T07:37:40;20.00;39.50
37678;DHT22;23517;50.390;8.616;2023-07-31T07:40:07;19.90;39.60
37678;DHT22;23517;50.390;8.616;2023-07-31T07:42:34;19.60;40.20
37678;DHT22;23517;50.390;8.616;2023-07-31T07:45:00;19.50;41.10
37678;DHT22;23517;50.390;8.616;2023-07-31T07:47:27;19.60;41.10
37678;DHT22;23517;50.390;8.616;2023-07-31T07:49:55;19.80;40.30
37678;DHT22;23517;50.390;8.616;2023-07-31T07:52:21;19.90;40.10
37678;DHT22;23517;50.390;8.616;2023-07-31T07:54:48;20.10;39.50
37678;DHT22;23517;50.390;8.616;2023-07-31T07:57:15;19.90;40.20
37678;DHT22;23517;50.390;8.616;2023-07-31T07:59:42;20.00;39.80
37678;DHT22;23517;50.390;8.616;2023-07-31T08:02:08;19.80;40.00
37678;DHT22;23517;50.390;8.616;2023-07-31T08:04:35;19.80;40.20
37678;DHT22;23517;50.390;8.616;2023-07-31T08:07:02;19.70;40.80
37678;DHT22;23517;50.390;8.616;2023-07-31T08:09:28;20.10;40.20
37678;DHT22;23517;50.390;8.616;2023-07-31T08:11:55;20.60;39.00
37678;DHT22;23517;50.390;8.616;2023-07-31T08:14:24;20.90;37.60
37678;DHT22;23517;50.390;8.616;2023-07-31T08:16:50;21.10;36.50
37678;DHT22;23517;50.390;8.616;2023-07-31T08:19:17;20.90;36.90
37678;DHT22;23517;50.390;8.616;2023-07-31T08:21:44;21.10;36.50
37678;DHT22;23517;50.390;8.616;2023-07-31T08:24:11;21.00;37.00
37678;DHT22;23517;50.390;8.616;2023-07-31T08:26:38;20.80;37.00
37678;DHT22;23517;50.390;8.616;2023-07-31T08:29:05;20.80;37.50
37678;DHT22;23517;50.390;8.616;2023-07-31T08:31:31;21.00;37.00
37678;DHT22;23517;50.390;8.616;2023-07-31T08:33:58;21.50;35.90
37678;DHT22;23517;50.390;8.616;2023-07-31T08:36:25;22.10;35.00
37678;DHT22;23517;50.390;8.616;2023-07-31T08:38:56;22.70;32.70
37678;DHT22;23517;50.390;8.616;2023-07-31T08:41:22;23.80;30.60
37678;DHT22;23517;50.390;8.616;2023-07-31T08:43:52;24.10;29.20
37678;DHT22;23517;50.390;8.616;2023-07-31T08:46:20;24.20;28.50
37678;DHT22;23517;50.390;8.616;2023-07-31T08:48:48;24.60;28.00
37678;DHT22;23517;50.390;8.616;2023-07-31T08:51:14;24.20;28.40
37678;DHT22;23517;50.390;8.616;2023-07-31T08:53:42;24.00;28.80
37678;DHT22;23517;50.390;8.616;2023-07-31T08:56:10;24.70;27.70
37678;DHT22;23517;50.390;8.616;2023-07-31T08:58:38;24.60;27.80
37678;DHT22;23517;50.390;8.616;2023-07-31T09:01:06;24.00;28.50
37678;DHT22;23517;50.390;8.616;2023-07-31T09:03:34;23.60;29.70
37678;DHT22;23517;50.390;8.616;2023-07-31T09:06:05;23.10;31.00
37678;DHT22;23517;50.390;8.616;2023-07-31T09:08:33;23.00;30.70
37678;DHT22;23517;50.390;8.616;2023-07-31T09:11:01;22.60;31.60
37678;DHT22;23517;50.390;8.616;2023-07-31T09:13:32;22.40;32.10
37678;DHT22;23517;50.390;8.616;2023-07-31T09:15:59;22.10;34.20
37678;DHT22;23517;50.390;8.616;2023-07-31T09:18:26;21.80;35.90
37678;DHT22;23517;50.390;8.616;2023-07-31T09:21:05;21.30;37.80
37678;DHT22;23517;50.390;8.616;2023-07-31T09:23:45;20.90;38.80
37678;DHT22;23517;50.390;8.616;2023-07-31T09:26:31;20.70;39.90
37678;DHT22;23517;50.390;8.616;2023-07-31T09:29:07;20.40;40.80
37678;DHT22;23517;50.390;8.616;2023-07-31T09:31:45;20.20;41.90
37678;DHT22;23517;50.390;8.616;2023-07-31T09:34:12;20.00;44.10
37678;DHT22;23517;50.390;8.616;2023-07-31T09:36:45;19.90;46.60
37678;DHT22;23517;50.390;8.616;2023-07-31T09:39:14;19.90;47.10
37678;DHT22;23517;50.390;8.616;2023-07-31T09:41:44;20.00;46.40
37678;DHT22;23517;50.390;8.616;2023-07-31T09:44:14;20.00;46.60
37678;DHT22;23517;50.390;8.616;2023-07-31T09:46:41;20.00;47.00
37678;DHT22;23517;50.390;8.616;2023-07-31T09:49:11;19.90;47.50
37678;DHT22;23517;50.390;8.616;2023-07-31T09:51:41;19.90;48.50
37678;DHT22;23517;50.390;8.616;2023-07-31T09:54:09;19.90;49.90
37678;DHT22;23517;50.390;8.616;2023-07-31T09:56:45;19.80;49.50
37678;DHT22;23517;50.390;8.616;2023-07-31T09:59:18;20.00;50.00
37678;DHT22;23517;50.390;8.616;2023-07-31T10:01:50;20.10;49.40
37678;DHT22;23517;50.390;8.616;2023-07-31T10:04:18;20.20;47.50
37678;DHT22;23517;50.390;8.616;2023-07-31T10:06:53;20.30;48.70
37678;DHT22;23517;50.390;8.616;2023-07-31T10:09:21;20.50;48.90
37678;DHT22;23517;50.390;8.616;2023-07-31T10:12:00;20.60;48.10
37678;DHT22;23517;50.390;8.616;2023-07-31T10:14:27;20.80;47.70
37678;DHT22;23517;50.390;8.616;2023-07-31T10:16:57;20.70;46.50
37678;DHT22;23517;50.390;8.616;2023-07-31T10:19:24;20.50;46.20
37678;DHT22;23517;50.390;8.616;2023-07-31T10:21:53;20.50;47.40
37678;DHT22;23517;50.390;8.616;2023-07-31T10:24:23;20.70;46.80
37678;DHT22;23517;50.390;8.616;2023-07-31T10:26:52;20.50;46.90
37678;DHT22;23517;50.390;8.616;2023-07-31T10:29:19;20.70;47.50
37678;DHT22;23517;50.390;8.616;2023-07-31T10:31:48;20.90;46.00
37678;DHT22;23517;50.390;8.616;2023-07-31T10:34:15;20.90;46.40
37678;DHT22;23517;50.390;8.616;2023-07-31T10:36:42;20.90;45.60
37678;DHT22;23517;50.390;8.616;2023-07-31T10:39:34;20.90;43.80
37678;DHT22;23517;50.390;8.616;2023-07-31T10:42:14;21.00;44.80
37678;DHT22;23517;50.390;8.616;2023-07-31T10:44:46;21.10;44.70
37678;DHT22;23517;50.390;8.616;2023-07-31T10:47:17;21.20;43.60
37678;DHT22;23517;50.390;8.616;2023-07-31T10:49:47;21.40;43.40
37678;DHT22;23517;50.390;8.616;2023-07-31T10:52:20;21.60;43.80
37678;DHT22;23517;50.390;8.616;2023-07-31T10:55:25;21.80;42.30
37678;DHT22;23517;50.390;8.616;2023-07-31T10:57:54;21.50;40.90
37678;DHT22;23517;50.390;8.616;2023-07-31T11:00:27;21.50;41.80
37678;DHT22;23517;50.390;8.616;2023-07-31T11:03:08;21.50;40.90
37678;DHT22;23517;50.390;8.616;2023-07-31T11:06:03;21.40;40.20
37678;DHT22;23517;50.390;8.616;2023-07-31T11:08:32;21.20;39.30
37678;DHT22;23517;50.390;8.616;2023-07-31T11:13:33;21.30;39.80
37678;DHT22;23517;50.390;8.616;2023-07-31T11:16:06;21.40;39.40
37678;DHT22;23517;50.390;8.616;2023-07-31T11:18:33;21.50;39.80
37678;DHT22;23517;50.390;8.616;2023-07-31T11:20:59;21.60;39.50
37678;DHT22;23517;50.390;8.616;2023-07-31T11:23:26;21.40;39.80
37678;DHT22;23517;50.390;8.616;2023-07-31T11:25:53;21.20;40.80
37678;DHT22;23517;50.390;8.616;2023-07-31T11:28:25;21.10;40.70
37678;DHT22;23517;50.390;8.616;2023-07-31T11:30:52;21.00;40.70
37678;DHT22;23517;50.390;8.616;2023-07-31T11:33:19;21.20;41.70
37678;DHT22;23517;50.390;8.616;2023-07-31T11:35:47;21.40;40.50
37678;DHT22;23517;50.390;8.616;2023-07-31T11:38:26;21.50;40.00
37678;DHT22;23517;50.390;8.616;2023-07-31T11:41:00;21.70;40.00
37678;DHT22;23517;50.390;8.616;2023-07-31T11:43:30;21.60;39.30
37678;DHT22;23517;50.390;8.616;2023-07-31T11:46:00;21.60;38.90
37678;DHT22;23517;50.390;8.616;2023-07-31T11:48:31;21.60;38.40
37678;DHT22;23517;50.390;8.616;2023-07-31T11:51:02;21.30;39.60
37678;DHT22;23517;50.390;8.616;2023-07-31T11:53:40;21.40;38.70
37678;DHT22;23517;50.390;8.616;2023-07-31T11:56:13;21.60;38.90
37678;DHT22;23517;50.390;8.616;2023-07-31T11:58:41;21.70;38.80
37678;DHT22;23517;50.390;8.616;2023-07-31T12:01:09;21.70;37.00
37678;DHT22;23517;50.390;8.616;2023-07-31T12:03:36;21.70;37.20
37678;DHT22;23517;50.390;8.616;2023-07-31T12:06:04;21.80;37.50
37678;DHT22;23517;50.390;8.616;2023-07-31T12:08:31;21.90;36.40
37678;DHT22;23517;50.390;8.616;2023-07-31T12:11:02;21.90;36.30
37678;DHT22;23517;50.390;8.616;2023-07-31T12:13:32;21.60;35.50
37678;DHT22;23517;50.390;8.616;2023-07-31T12:16:00;21.70;35.60
37678;DHT22;23517;50.390;8.616;2023-07-31T12:18:34;21.60;35.60
37678;DHT22;23517;50.390;8.616;2023-07-31T12:21:04;21.40;35.40
37678;DHT22;23517;50.390;8.616;2023-07-31T12:23:33;21.40;36.10
37678;DHT22;23517;50.390;8.616;2023-07-31T12:28:44;21.50;35.40
37678;DHT22;23517;50.390;8.616;2023-07-31T12:31:19;21.50;35.40
37678;DHT22;23517;50.390;8.616;2023-07-31T12:33:49;21.60;35.50
37678;DHT22;23517;50.390;8.616;2023-07-31T12:36:27;21.60;35.40
37678;DHT22;23517;50.390;8.616;2023-07-31T12:38:55;21.80;35.30
37678;DHT22;23517;50.390;8.616;2023-07-31T12:41:23;22.10;34.90
37678;DHT22;23517;50.390;8.616;2023-07-31T12:43:50;22.10;34.30
37678;DHT22;23517;50.390;8.616;2023-07-31T12:46:16;22.20;34.10
37678;DHT22;23517;50.390;8.616;2023-07-31T12:48:43;22.20;33.90
37678;DHT22;23517;50.390;8.616;2023-07-31T12:51:10;22.40;34.00
37678;DHT22;23517;50.390;8.616;2023-07-31T12:53:37;22.30;33.10
37678;DHT22;23517;50.390;8.616;2023-07-31T12:56:03;22.20;33.70
37678;DHT22;23517;50.390;8.616;2023-07-31T12:58:30;22.20;33.90
37678;DHT22;23517;50.390;8.616;2023-07-31T13:00:57;22.30;34.00
37678;DHT22;23517;50.390;8.616;2023-07-31T13:03:26;22.30;33.40
37678;DHT22;23517;50.390;8.616;2023-07-31T13:05:54;22.30;33.70
37678;DHT22;23517;50.390;8.616;2023-07-31T13:08:21;22.20;33.90
37678;DHT22;23517;50.390;8.616;2023-07-31T13:10:47;22.10;33.70
37678;DHT22;23517;50.390;8.616;2023-07-31T13:13:14;22.20;33.70
37678;DHT22;23517;50.390;8.616;2023-07-31T13:15:41;22.10;33.70
37678;DHT22;23517;50.390;8.616;2023-07-31T13:18:09;22.20;33.60
37678;DHT22;23517;50.390;8.616;2023-07-31T13:20:35;22.20;33.80
37678;DHT22;23517;50.390;8.616;2023-07-31T13:23:02;22.30;33.80
37678;DHT22;23517;50.390;8.616;2023-07-31T13:25:29;22.30;33.70
37678;DHT22;23517;50.390;8.616;2023-07-31T13:27:55;22.40;33.40
37678;DHT22;23517;50.390;8.616;2023-07-31T13:30:23;22.60;33.00
37678;DHT22;23517;50.390;8.616;2023-07-31T13:32:50;22.80;32.40
37678;DHT22;23517;50.390;8.616;2023-07-31T13:35:16;22.90;32.30
37678;DHT22;23517;50.390;8.616;2023-07-31T13:37:43;23.00;31.70
37678;DHT22;23517;50.390;8.616;2023-07-31T13:40:10;23.10;31.60
37678;DHT22;23517;50.390;8.616;2023-07-31T13:42:37;23.10;31.90
37678;DHT22;23517;50.390;8.616;2023-07-31T13:45:04;23.10;31.80
37678;DHT22;23517;50.390;8.616;2023-07-31T13:47:33;23.20;31.70
37678;DHT22;23517;50.390;8.616;2023-07-31T13:50:00;23.40;31.60
37678;DHT22;23517;50.390;8.616;2023-07-31T13:52:27;23.40;31.70
37678;DHT22;23517;50.390;8.616;2023-07-31T13:54:54;23.40;31.20
37678;DHT22;23517;50.390;8.616;2023-07-31T13:57:20;23.20;31.60
37678;DHT22;23517;50.390;8.616;2023-07-31T13:59:47;22.90;32.30
37678;DHT22;23517;50.390;8.616;2023-07-31T14:02:14;22.80;32.60
37678;DHT22;23517;50.390;8.616;2023-07-31T14:04:41;22.80;32.70
37678;DHT22;23517;50.390;8.616;2023-07-31T14:07:08;22.70;33.20
37678;DHT22;23517;50.390;8.616;2023-07-31T14:09:34;22.60;33.60
37678;DHT22;23517;50.390;8.616;2023-07-31T14:12:01;22.50;33.90
37678;DHT22;23517;50.390;8.616;2023-07-31T14:14:28;22.40;34.10
37678;DHT22;23517;50.390;8.616;2023-07-31T14:16:54;22.30;34.00
37678;DHT22;23517;50.390;8.616;2023-07-31T14:19:21;22.20;34.30
37678;DHT22;23517;50.390;8.616;2023-07-31T14:21:48;22.30;34.30
37678;DHT22;23517;50.390;8.616;2023-07-31T14:24:35;22.30;33.90
37678;DHT22;23517;50.390;8.616;2023-07-31T14:27:01;22.40;34.00
37678;DHT22;23517;50.390;8.616;2023-07-31T14:29:29;22.50;33.60
37678;DHT22;23517;50.390;8.616;2023-07-31T14:31:56;22.70;33.50
37678;DHT22;23517;50.390;8.616;2023-07-31T14:34:23;22.80;33.10
37678;DHT22;23517;50.390;8.616;2023-07-31T14:36:50;23.00;33.00
37678;DHT22;23517;50.390;8.616;2023-07-31T14:39:16;23.00;32.50
37678;DHT22;23517;50.390;8.616;2023-07-31T14:41:43;23.00;32.10
37678;DHT22;23517;50.390;8.616;2023-07-31T14:44:10;22.90;32.90
37678;DHT22;23517;50.390;8.616;2023-07-31T14:46:36;22.70;33.10
37678;DHT22;23517;50.390;8.616;2023-07-31T14:49:04;22.60;32.90
37678;DHT22;23517;50.390;8.616;2023-07-31T14:51:30;22.50;33.40
37678;DHT22;23517;50.390;8.616;2023-07-31T14:53:57;22.40;33.60
37678;DHT22;23517;50.390;8.616;2023-07-31T14:56:24;22.60;33.80
37678;DHT22;23517;50.390;8.616;2023-07-31T14:58:51;22.60;33.70
37678;DHT22;23517;50.390;8.616;2023-07-31T15:01:18;22.60;33.70
37678;DHT22;23517;50.390;8.616;2023-07-31T15:03:44;22.50;33.70
37678;DHT22;23517;50.390;8.616;2023-07-31T15:06:12;22.50;33.60
37678;DHT22;23517;50.390;8.616;2023-07-31T15:08:39;22.40;34.10
37678;DHT22;23517;50.390;8.616;2023-07-31T15:11:09;22.40;34.20
37678;DHT22;23517;50.390;8.616;2023-07-31T15:13:36;22.40;34.30
37678;DHT22;23517;50.390;8.616;2023-07-31T15:16:02;22.40;34.50
37678;DHT22;23517;50.390;8.616;2023-07-31T15:18:29;22.30;34.70
37678;DHT22;23517;50.390;8.616;2023-07-31T15:20:56;22.30;34.60
37678;DHT22;23517;50.390;8.616;2023-07-31T15:23:22;22.20;34.90
37678;DHT22;23517;50.390;8.616;2023-07-31T15:25:50;22.10;35.00
37678;DHT22;23517;50.390;8.616;2023-07-31T15:28:17;22.00;35.20
37678;DHT22;23517;50.390;8.616;2023-07-31T15:30:45;21.90;35.40
37678;DHT22;23517;50.390;8.616;2023-07-31T15:33:11;21.80;35.60
37678;DHT22;23517;50.390;8.616;2023-07-31T15:35:38;21.70;36.10
37678;DHT22;23517;50.390;8.616;2023-07-31T15:38:05;21.60;37.10
37678;DHT22;23517;50.390;8.616;2023-07-31T15:40:32;21.50;36.80
37678;DHT22;23517;50.390;8.616;2023-07-31T15:42:59;21.50;36.70
37678;DHT22;23517;50.390;8.616;2023-07-31T15:45:28;21.60;36.70
37678;DHT22;23517;50.390;8.616;2023-07-31T15:47:56;21.80;36.50
37678;DHT22;23517;50.390;8.616;2023-07-31T15:50:23;21.70;36.50
37678;DHT22;23517;50.390;8.616;2023-07-31T15:52:50;21.70;36.70